createdAt,value
2017-10-08T00:00:00.352Z,16.90
2017-10-08T00:02:28.123Z,16.90
2017-10-08T00:04:55.831Z,16.90
2017-10-08T00:07:23.725Z,16.90
2017-10-08T00:09:52.224Z,17.00
2017-10-08T00:12:19.988Z,16.90
2017-10-08T00:14:47.866Z,16.90
2017-10-08T00:17:15.585Z,17.00
2017-10-08T00:19:43.316Z,16.90
2017-10-08T00:22:11.664Z,16.90
2017-10-08T00:24:39.378Z,17.00
2017-10-08T00:27:07.178Z,17.00
2017-10-08T00:29:34.967Z,17.00
2017-10-08T00:32:02.677Z,17.00
2017-10-08T00:34:30.442Z,17.00
2017-10-08T00:36:58.225Z,16.90
2017-10-08T00:39:26.000Z,17.00
2017-10-08T00:41:53.867Z,16.90
2017-10-08T00:44:21.699Z,16.90
2017-10-08T00:46:49.447Z,16.90
2017-10-08T00:49:17.224Z,16.90
2017-10-08T00:51:44.945Z,16.90
2017-10-08T00:54:12.695Z,17.00
2017-10-08T00:56:40.649Z,17.00
2017-10-08T00:59:08.487Z,16.90
2017-10-08T01:01:36.304Z,16.90
2017-10-08T01:04:04.178Z,17.00
2017-10-08T01:06:31.938Z,17.00
2017-10-08T01:08:59.835Z,17.00
2017-10-08T01:11:27.621Z,16.90
2017-10-08T01:13:55.418Z,17.00
2017-10-08T01:16:23.184Z,17.00
2017-10-08T01:18:50.945Z,17.00
2017-10-08T01:21:18.748Z,17.00
2017-10-08T01:23:46.548Z,17.00
2017-10-08T01:26:14.347Z,17.00
2017-10-08T01:28:42.124Z,17.00
2017-10-08T01:31:09.962Z,17.00
2017-10-08T01:33:37.832Z,17.00
2017-10-08T01:36:05.666Z,17.00
2017-10-08T01:38:33.446Z,17.00
2017-10-08T01:41:01.263Z,16.90
2017-10-08T01:43:29.121Z,16.90
2017-10-08T01:45:56.876Z,16.90
2017-10-08T01:48:24.617Z,16.90
2017-10-08T01:50:53.127Z,16.90
2017-10-08T01:53:20.846Z,16.90
2017-10-08T01:55:48.686Z,16.90
2017-10-08T01:58:16.427Z,16.90
2017-10-08T02:00:44.149Z,16.90
2017-10-08T02:03:11.952Z,16.90
2017-10-08T02:05:39.738Z,16.90
2017-10-08T02:08:07.535Z,16.90
2017-10-08T02:10:35.377Z,16.90
2017-10-08T02:13:03.085Z,16.90
2017-10-08T02:15:30.807Z,16.90
2017-10-08T02:17:58.542Z,16.90
2017-10-08T02:20:26.260Z,16.90
2017-10-08T02:22:53.985Z,16.90
2017-10-08T02:25:21.724Z,16.90
2017-10-08T02:27:50.285Z,16.90
2017-10-08T02:30:18.062Z,16.90
2017-10-08T02:32:45.882Z,16.90
2017-10-08T02:35:13.662Z,16.90
2017-10-08T02:37:41.417Z,16.90
2017-10-08T02:40:09.149Z,16.90
2017-10-08T02:42:36.898Z,16.90
2017-10-08T02:45:04.681Z,17.00
2017-10-08T02:47:32.520Z,17.00
2017-10-08T02:50:00.335Z,17.00
2017-10-08T02:52:28.105Z,17.00
2017-10-08T02:54:55.982Z,17.00
2017-10-08T02:57:23.689Z,17.10
2017-10-08T02:59:51.467Z,17.10
2017-10-08T03:02:19.323Z,17.10
2017-10-08T03:04:47.096Z,17.10
2017-10-08T03:07:14.912Z,17.00
2017-10-08T03:09:42.645Z,17.00
2017-10-08T03:12:10.449Z,17.00
2017-10-08T03:14:38.171Z,17.00
2017-10-08T03:17:05.958Z,17.00
2017-10-08T03:19:33.737Z,17.00
2017-10-08T03:22:01.498Z,17.00
2017-10-08T03:24:29.280Z,17.00
2017-10-08T03:26:57.003Z,16.90
2017-10-08T03:29:24.770Z,16.90
2017-10-08T03:31:52.518Z,16.80
2017-10-08T03:34:20.297Z,16.80
2017-10-08T03:36:48.089Z,16.80
2017-10-08T03:39:15.907Z,16.80
2017-10-08T03:41:43.610Z,16.80
2017-10-08T03:44:11.385Z,16.80
2017-10-08T03:46:39.104Z,16.70
2017-10-08T03:49:06.850Z,16.70
2017-10-08T03:51:34.596Z,16.70
2017-10-08T03:54:02.386Z,16.70
2017-10-08T03:56:30.112Z,16.70
2017-10-08T03:58:57.879Z,16.70
2017-10-08T04:01:26.474Z,16.70
2017-10-08T04:03:55.031Z,16.70
2017-10-08T04:06:22.812Z,16.60
2017-10-08T04:08:50.698Z,16.70
2017-10-08T04:11:19.256Z,16.60
2017-10-08T04:13:47.067Z,16.60
2017-10-08T04:16:14.883Z,16.60
2017-10-08T04:18:42.643Z,16.60
2017-10-08T04:21:10.409Z,16.60
2017-10-08T04:23:38.131Z,16.50
2017-10-08T04:26:05.843Z,16.50
2017-10-08T04:28:33.616Z,16.60
2017-10-08T04:31:01.489Z,16.50
2017-10-08T04:33:29.223Z,16.50
2017-10-08T04:35:56.975Z,16.50
2017-10-08T04:40:58.526Z,16.40
2017-10-08T04:43:26.328Z,16.40
2017-10-08T04:45:54.101Z,16.40
2017-10-08T04:48:21.816Z,16.30
2017-10-08T04:50:49.590Z,16.30
2017-10-08T04:53:17.309Z,16.30
2017-10-08T04:55:45.036Z,16.20
2017-10-08T04:58:12.834Z,16.20
2017-10-08T05:00:40.627Z,16.20
2017-10-08T05:03:08.419Z,16.20
2017-10-08T05:05:36.188Z,16.20
2017-10-08T05:08:04.003Z,16.20
2017-10-08T05:10:31.732Z,16.20
2017-10-08T05:12:59.539Z,16.10
2017-10-08T05:15:27.361Z,16.10
2017-10-08T05:17:55.202Z,16.10
2017-10-08T05:20:22.983Z,16.20
2017-10-08T05:22:51.517Z,16.20
2017-10-08T05:25:19.323Z,16.10
2017-10-08T05:27:47.093Z,16.20
2017-10-08T05:30:14.803Z,16.20
2017-10-08T05:32:42.688Z,16.10
2017-10-08T05:35:10.677Z,16.10
2017-10-08T05:37:39.218Z,16.20
2017-10-08T05:40:06.944Z,16.20
2017-10-08T05:42:34.717Z,16.20
2017-10-08T05:45:02.595Z,16.30
2017-10-08T05:47:31.084Z,16.20
2017-10-08T05:49:58.852Z,16.20
2017-10-08T05:52:26.586Z,16.20
2017-10-08T05:54:54.310Z,16.20
2017-10-08T05:57:22.107Z,16.20
2017-10-08T05:59:49.860Z,16.20
2017-10-08T06:02:17.672Z,16.20
2017-10-08T06:04:45.465Z,16.20
2017-10-08T06:07:13.350Z,16.20
2017-10-08T06:09:41.076Z,16.30
2017-10-08T06:12:08.858Z,16.30
2017-10-08T06:14:36.755Z,16.40
2017-10-08T06:17:04.482Z,16.40
2017-10-08T06:19:33.029Z,16.50
2017-10-08T06:22:00.896Z,16.50
2017-10-08T06:24:28.699Z,16.50
2017-10-08T06:26:56.510Z,16.50
2017-10-08T06:29:24.312Z,16.50
2017-10-08T06:31:52.365Z,16.50
2017-10-08T06:34:20.086Z,16.50
2017-10-08T06:36:47.866Z,16.50
2017-10-08T06:39:15.587Z,16.50
2017-10-08T06:41:43.541Z,16.50
2017-10-08T06:44:11.352Z,16.40
2017-10-08T06:46:39.142Z,16.50
2017-10-08T06:49:06.853Z,16.50
2017-10-08T06:51:34.704Z,16.60
2017-10-08T06:54:02.423Z,16.60
2017-10-08T06:56:30.339Z,16.70
2017-10-08T06:58:58.139Z,16.70
2017-10-08T07:01:25.916Z,16.80
2017-10-08T07:03:53.632Z,16.80
2017-10-08T07:06:21.454Z,16.80
2017-10-08T07:08:50.011Z,16.80
2017-10-08T07:11:17.797Z,16.80
2017-10-08T07:13:45.559Z,16.80
2017-10-08T07:16:13.306Z,16.80
2017-10-08T07:18:41.054Z,16.80
2017-10-08T07:21:08.924Z,16.80
2017-10-08T07:23:36.746Z,16.90
2017-10-08T07:26:05.399Z,16.90
2017-10-08T07:28:33.112Z,16.90
2017-10-08T07:31:00.957Z,16.90
2017-10-08T07:33:28.945Z,17.00
2017-10-08T07:35:57.503Z,17.10
2017-10-08T07:38:25.256Z,17.00
2017-10-08T07:40:53.050Z,17.10
2017-10-08T07:43:20.851Z,17.10
2017-10-08T07:45:48.679Z,17.10
2017-10-08T07:48:16.443Z,17.10
2017-10-08T07:50:44.248Z,17.20
2017-10-08T07:53:12.050Z,17.30
2017-10-08T07:55:39.902Z,17.30
2017-10-08T07:58:07.700Z,17.30
2017-10-08T08:00:35.435Z,17.40
2017-10-08T08:03:03.229Z,17.40
2017-10-08T08:05:32.479Z,17.50
2017-10-08T08:08:00.288Z,17.60
2017-10-08T08:10:28.091Z,17.60
2017-10-08T08:12:55.854Z,17.60
2017-10-08T08:15:23.589Z,17.60
2017-10-08T08:18:02.537Z,17.70
2017-10-08T08:20:30.350Z,17.70
2017-10-08T08:22:58.128Z,17.70
2017-10-08T08:25:25.860Z,17.70
2017-10-08T08:27:53.718Z,17.80
2017-10-08T08:30:21.443Z,17.80
2017-10-08T08:32:49.190Z,17.90
2017-10-08T08:35:16.977Z,17.90
2017-10-08T08:37:44.786Z,17.90
2017-10-08T08:40:12.568Z,18.10
2017-10-08T08:42:41.064Z,18.20
2017-10-08T08:45:08.810Z,18.20
2017-10-08T08:47:36.535Z,18.40
2017-10-08T08:50:04.418Z,18.30
2017-10-08T08:52:32.135Z,18.30
2017-10-08T08:54:59.845Z,18.40
2017-10-08T08:57:27.716Z,18.40
2017-10-08T08:59:55.553Z,18.40
2017-10-08T09:02:23.353Z,18.40
2017-10-08T09:04:51.084Z,18.40
2017-10-08T09:07:18.878Z,18.40
2017-10-08T09:09:46.641Z,18.30
2017-10-08T09:12:15.351Z,18.40
2017-10-08T09:14:43.067Z,18.40
2017-10-08T09:17:10.800Z,18.40
2017-10-08T09:19:38.731Z,18.40
2017-10-08T09:22:06.514Z,18.40
2017-10-08T09:24:34.243Z,18.60
2017-10-08T09:27:02.073Z,18.60
2017-10-08T09:29:29.881Z,18.50
2017-10-08T09:31:57.599Z,18.50
2017-10-08T09:34:25.405Z,18.90
2017-10-08T09:36:53.226Z,18.80
2017-10-08T09:39:27.232Z,18.80
2017-10-08T09:41:54.953Z,18.70
2017-10-08T09:44:22.739Z,18.70
2017-10-08T09:46:50.469Z,18.80
2017-10-08T09:49:18.204Z,18.70
2017-10-08T09:51:46.046Z,18.80
2017-10-08T09:54:13.812Z,18.80
2017-10-08T09:56:41.587Z,18.70
2017-10-08T09:59:09.403Z,18.80
2017-10-08T10:01:37.974Z,18.80
2017-10-08T10:04:05.727Z,18.70
2017-10-08T10:06:33.688Z,18.90
2017-10-08T10:09:01.476Z,18.90
2017-10-08T10:11:29.258Z,18.80
2017-10-08T10:13:57.838Z,19.00
2017-10-08T10:16:26.325Z,18.90
2017-10-08T10:18:54.914Z,19.00
2017-10-08T10:21:23.710Z,19.10
2017-10-08T10:23:51.537Z,19.10
2017-10-08T10:26:19.332Z,19.10
2017-10-08T10:28:47.114Z,19.20
2017-10-08T10:31:14.844Z,19.20
2017-10-08T10:33:42.623Z,19.20
2017-10-08T10:36:10.419Z,19.30
2017-10-08T10:38:38.209Z,19.70
2017-10-08T10:41:05.998Z,19.70
2017-10-08T10:43:33.716Z,19.40
2017-10-08T10:46:02.332Z,19.40
2017-10-08T10:48:30.086Z,19.30
2017-10-08T10:50:57.911Z,19.40
2017-10-08T10:53:25.647Z,19.40
2017-10-08T10:55:53.427Z,19.30
2017-10-08T10:58:21.240Z,19.30
2017-10-08T11:00:49.143Z,19.40
2017-10-08T11:03:16.940Z,19.30
2017-10-08T11:05:44.694Z,19.30
2017-10-08T11:08:12.444Z,19.40
2017-10-08T11:10:40.177Z,19.50
2017-10-08T11:13:07.981Z,19.60
2017-10-08T11:15:35.852Z,19.50
2017-10-08T11:18:03.619Z,19.50
2017-10-08T11:20:31.362Z,19.50
2017-10-08T11:22:59.298Z,19.60
2017-10-08T11:25:27.861Z,19.70
2017-10-08T11:27:56.704Z,19.70
2017-10-08T11:30:24.562Z,19.70
2017-10-08T11:32:52.353Z,19.70
2017-10-08T11:35:20.156Z,19.80
2017-10-08T11:37:47.963Z,19.80
2017-10-08T11:40:16.594Z,19.80
2017-10-08T11:42:44.496Z,19.80
2017-10-08T11:45:13.018Z,19.90
2017-10-08T11:47:40.847Z,19.80
2017-10-08T11:50:09.505Z,19.90
2017-10-08T11:52:37.285Z,19.90
2017-10-08T11:55:05.096Z,20.10
2017-10-08T11:57:32.821Z,20.00
2017-10-08T12:00:00.593Z,20.10
2017-10-08T12:02:28.318Z,20.10
2017-10-08T12:04:56.119Z,20.00
2017-10-08T12:07:23.997Z,19.90
2017-10-08T12:09:51.741Z,19.90
2017-10-08T12:12:19.516Z,20.00
2017-10-08T12:14:47.238Z,19.90
2017-10-08T12:17:14.983Z,19.90
2017-10-08T12:19:43.537Z,19.80
2017-10-08T12:22:11.346Z,19.70
2017-10-08T12:24:39.152Z,19.70
2017-10-08T12:27:07.014Z,19.70
2017-10-08T12:29:34.807Z,19.90
2017-10-08T12:32:02.533Z,20.00
2017-10-08T12:34:30.368Z,20.00
2017-10-08T12:36:59.506Z,20.10
2017-10-08T12:39:27.267Z,20.00
2017-10-08T12:41:55.104Z,20.10
2017-10-08T12:44:22.913Z,20.10
2017-10-08T12:46:50.732Z,20.20
2017-10-08T12:49:18.497Z,20.30
2017-10-08T12:51:46.264Z,20.30
2017-10-08T12:54:14.823Z,20.20
2017-10-08T12:56:42.576Z,20.20
2017-10-08T12:59:15.301Z,20.30
2017-10-08T13:01:43.193Z,20.40
2017-10-08T13:04:11.864Z,20.40
2017-10-08T13:06:40.415Z,20.40
2017-10-08T13:09:14.091Z,20.40
2017-10-08T13:11:41.877Z,20.50
2017-10-08T13:14:09.618Z,21.00
2017-10-08T13:16:37.407Z,21.00
2017-10-08T13:19:05.195Z,20.80
2017-10-08T13:21:33.082Z,20.60
2017-10-08T13:24:00.811Z,20.70
2017-10-08T13:26:28.684Z,20.60
2017-10-08T13:28:56.414Z,20.50
2017-10-08T13:31:24.205Z,20.50
2017-10-08T13:33:51.944Z,20.60
2017-10-08T13:36:19.718Z,20.60
2017-10-08T13:38:47.642Z,20.70
2017-10-08T13:41:15.358Z,20.70
2017-10-08T13:43:43.130Z,20.70
2017-10-08T13:46:10.968Z,20.80
2017-10-08T13:48:38.753Z,20.90
2017-10-08T13:51:06.505Z,21.00
2017-10-08T13:53:35.003Z,20.70
2017-10-08T13:56:02.865Z,20.70
2017-10-08T13:58:30.646Z,20.70
2017-10-08T14:00:58.497Z,20.60
2017-10-08T14:03:26.273Z,20.60
2017-10-08T14:05:54.048Z,20.50
2017-10-08T14:08:21.891Z,20.60
2017-10-08T14:10:49.658Z,20.60
2017-10-08T14:13:17.500Z,20.60
2017-10-08T14:15:45.286Z,20.70
2017-10-08T14:18:14.568Z,20.70
2017-10-08T14:20:42.351Z,20.60
2017-10-08T14:23:10.843Z,20.70
2017-10-08T14:25:38.561Z,20.60
2017-10-08T14:28:06.295Z,20.70
2017-10-08T14:30:34.115Z,20.70
2017-10-08T14:33:01.952Z,20.70
2017-10-08T14:35:29.721Z,20.70
2017-10-08T14:37:57.516Z,20.70
2017-10-08T14:40:25.299Z,20.60
2017-10-08T14:42:53.202Z,20.60
2017-10-08T14:45:22.007Z,20.60
2017-10-08T14:47:49.731Z,20.60
2017-10-08T14:50:18.304Z,20.70
2017-10-08T14:52:46.041Z,20.60
2017-10-08T14:55:13.835Z,20.60
2017-10-08T14:57:41.592Z,20.60
2017-10-08T15:00:09.439Z,20.70
2017-10-08T15:02:37.255Z,20.80
2017-10-08T15:05:05.827Z,20.70
2017-10-08T15:07:33.560Z,20.70
2017-10-08T15:10:01.369Z,20.70
2017-10-08T15:12:29.227Z,20.70
2017-10-08T15:14:57.077Z,20.70
2017-10-08T15:17:24.871Z,20.70
2017-10-08T15:19:52.682Z,20.70
2017-10-08T15:22:26.233Z,20.70
2017-10-08T15:24:53.973Z,20.70
2017-10-08T15:27:21.798Z,20.70
2017-10-08T15:32:28.457Z,20.80
2017-10-08T15:34:57.041Z,20.80
2017-10-08T15:37:24.821Z,20.80
2017-10-08T15:39:52.723Z,20.80
2017-10-08T15:42:20.533Z,20.80
2017-10-08T15:44:48.274Z,20.90
2017-10-08T15:47:16.087Z,20.90
2017-10-08T15:49:43.875Z,20.90
2017-10-08T15:52:12.470Z,20.80
2017-10-08T15:54:40.251Z,20.80
2017-10-08T15:57:08.020Z,20.80
2017-10-08T15:59:35.835Z,20.90
2017-10-08T16:02:03.603Z,20.90
2017-10-08T16:04:31.395Z,20.80
2017-10-08T16:06:59.243Z,20.80
2017-10-08T16:09:26.984Z,20.80
2017-10-08T16:11:56.055Z,20.80
2017-10-08T16:14:23.953Z,20.90
2017-10-08T16:16:51.751Z,20.90
2017-10-08T16:19:19.538Z,20.90
2017-10-08T16:21:47.462Z,20.90
2017-10-08T16:24:15.212Z,20.90
2017-10-08T16:26:43.061Z,20.90
2017-10-08T16:29:10.830Z,20.90
2017-10-08T16:31:38.613Z,20.90
2017-10-08T16:34:06.353Z,21.00
2017-10-08T16:36:37.143Z,21.00
2017-10-08T16:39:05.968Z,21.00
2017-10-08T16:41:36.938Z,21.00
2017-10-08T16:44:04.693Z,21.00
2017-10-08T16:46:32.530Z,21.00
2017-10-08T16:49:00.338Z,21.10
2017-10-08T16:51:28.077Z,21.00
2017-10-08T16:53:56.628Z,21.00
2017-10-08T16:56:25.336Z,21.00
2017-10-08T16:58:53.070Z,21.00
2017-10-08T17:01:20.872Z,21.00
2017-10-08T17:03:48.628Z,20.90
2017-10-08T17:06:16.339Z,20.90
2017-10-08T17:08:44.073Z,20.80
2017-10-08T17:11:11.862Z,20.80
2017-10-08T17:13:39.610Z,20.80
2017-10-08T17:16:07.407Z,20.70
2017-10-08T17:18:35.286Z,20.70
2017-10-08T17:21:03.103Z,20.70
2017-10-08T17:23:30.881Z,20.70
2017-10-08T17:25:59.515Z,20.70
2017-10-08T17:28:27.314Z,20.60
2017-10-08T17:30:55.101Z,20.60
2017-10-08T17:33:23.621Z,20.40
2017-10-08T17:35:54.686Z,20.40
2017-10-08T17:38:22.563Z,20.40
2017-10-08T17:40:50.304Z,20.30
2017-10-08T17:43:18.167Z,20.30
2017-10-08T17:45:45.885Z,20.20
2017-10-08T17:48:13.674Z,20.10
2017-10-08T17:50:41.403Z,20.10
2017-10-08T17:53:09.267Z,20.10
2017-10-08T17:55:37.055Z,20.00
2017-10-08T17:58:04.859Z,20.00
2017-10-08T18:00:33.368Z,20.00
2017-10-08T18:03:01.110Z,19.90
2017-10-08T18:05:28.827Z,19.90
2017-10-08T18:07:56.714Z,19.90
2017-10-08T18:10:24.452Z,19.90
2017-10-08T18:12:52.334Z,19.90
2017-10-08T18:15:20.149Z,19.80
2017-10-08T18:17:47.884Z,19.90
2017-10-08T18:20:15.704Z,19.80
2017-10-08T18:22:43.588Z,19.80
2017-10-08T18:25:11.361Z,19.80
2017-10-08T18:27:39.168Z,19.80
2017-10-08T18:30:07.664Z,19.90
2017-10-08T18:32:35.418Z,19.80
2017-10-08T18:35:03.187Z,19.90
2017-10-08T18:37:31.000Z,19.80
2017-10-08T18:39:58.818Z,20.10
2017-10-08T18:42:26.612Z,20.30
2017-10-08T18:44:54.458Z,20.30
2017-10-08T18:47:22.965Z,20.60
2017-10-08T18:49:50.754Z,20.60
2017-10-08T18:52:18.620Z,20.70
2017-10-08T18:54:46.451Z,20.80
2017-10-08T18:57:14.944Z,20.30
2017-10-08T18:59:42.756Z,20.20
2017-10-08T19:02:10.501Z,20.10
2017-10-08T19:04:38.289Z,19.90
2017-10-08T19:07:06.086Z,19.70
2017-10-08T19:09:33.890Z,19.70
2017-10-08T19:12:01.632Z,19.60
2017-10-08T19:14:30.233Z,19.40
2017-10-08T19:16:59.533Z,19.30
2017-10-08T19:19:29.138Z,19.30
2017-10-08T19:21:59.514Z,19.20
2017-10-08T19:24:28.580Z,19.30
2017-10-08T19:26:57.389Z,19.30
2017-10-08T19:29:26.421Z,19.20
2017-10-08T19:31:54.557Z,19.30
2017-10-08T19:34:24.742Z,19.10
2017-10-08T19:36:53.815Z,19.10
2017-10-08T19:39:21.690Z,19.10
2017-10-08T19:41:49.413Z,19.00
2017-10-08T19:44:17.846Z,19.00
2017-10-08T19:46:46.827Z,19.00
2017-10-08T19:49:14.651Z,19.10
2017-10-08T19:51:42.447Z,19.10
2017-10-08T19:54:10.302Z,19.10
2017-10-08T19:56:38.415Z,19.10
2017-10-08T19:59:06.211Z,19.00
2017-10-08T20:01:34.696Z,18.90
2017-10-08T20:04:02.501Z,18.90
2017-10-08T20:06:30.225Z,19.00
2017-10-08T20:08:57.985Z,19.00
2017-10-08T20:11:26.464Z,18.90
2017-10-08T20:13:55.021Z,19.00
2017-10-08T20:16:22.853Z,18.90
2017-10-08T20:18:50.755Z,18.90
2017-10-08T20:21:18.556Z,18.80
2017-10-08T20:23:46.285Z,18.80
2017-10-08T20:26:13.998Z,18.70
2017-10-08T20:28:42.478Z,18.70
2017-10-08T20:31:10.200Z,18.60
2017-10-08T20:33:37.914Z,18.60
2017-10-08T20:36:06.431Z,18.40
2017-10-08T20:38:34.159Z,18.40
2017-10-08T20:41:01.880Z,18.40
2017-10-08T20:43:29.690Z,18.40
2017-10-08T20:45:57.412Z,18.40
2017-10-08T20:48:26.013Z,18.40
2017-10-08T20:50:53.825Z,18.40
2017-10-08T20:53:21.555Z,18.40
2017-10-08T20:55:49.272Z,18.40
2017-10-08T20:58:16.991Z,18.30
2017-10-08T21:00:44.705Z,18.30
2017-10-08T21:03:12.437Z,18.30
2017-10-08T21:05:40.255Z,18.20
2017-10-08T21:08:07.971Z,18.10
2017-10-08T21:10:35.694Z,18.10
2017-10-08T21:13:03.506Z,18.10
2017-10-08T21:15:31.992Z,18.00
2017-10-08T21:17:59.727Z,18.00
2017-10-08T21:20:27.461Z,18.00
2017-10-08T21:22:55.185Z,18.00
2017-10-08T21:25:22.926Z,17.90
2017-10-08T21:27:50.728Z,17.90
2017-10-08T21:30:18.453Z,17.80
2017-10-08T21:32:46.180Z,17.90
2017-10-08T21:35:13.991Z,17.90
2017-10-08T21:37:41.703Z,17.90
2017-10-08T21:40:09.462Z,17.90
2017-10-08T21:42:37.259Z,17.90
2017-10-08T21:45:04.971Z,17.90
2017-10-08T21:47:32.688Z,17.90
2017-10-08T21:50:00.506Z,17.80
2017-10-08T21:52:29.036Z,17.80
2017-10-08T21:54:56.753Z,17.80
2017-10-08T21:57:24.502Z,17.80
2017-10-08T21:59:52.247Z,17.80
2017-10-08T22:02:19.958Z,17.70
2017-10-08T22:04:48.546Z,17.70
2017-10-08T22:07:16.281Z,17.60
2017-10-08T22:09:43.996Z,17.70
2017-10-08T22:12:11.815Z,17.60
2017-10-08T22:14:39.566Z,17.50
2017-10-08T22:17:08.070Z,17.40
2017-10-08T22:19:35.875Z,17.40
2017-10-08T22:22:04.356Z,17.40
2017-10-08T22:24:32.063Z,17.30
2017-10-08T22:26:59.802Z,17.50
2017-10-08T22:29:27.515Z,17.60
2017-10-08T22:31:55.229Z,17.50
2017-10-08T22:34:22.959Z,17.50
2017-10-08T22:36:50.673Z,17.50
2017-10-08T22:39:18.427Z,17.40
2017-10-08T22:41:46.199Z,17.40
2017-10-08T22:44:13.988Z,17.40
2017-10-08T22:46:41.713Z,17.40
2017-10-08T22:49:09.523Z,17.30
2017-10-08T22:51:37.302Z,17.30
2017-10-08T22:54:05.087Z,17.30
2017-10-08T22:56:32.799Z,17.30
2017-10-08T22:59:00.529Z,17.20
2017-10-08T23:01:28.292Z,17.20
2017-10-08T23:03:56.232Z,17.20
2017-10-08T23:06:23.971Z,17.20
2017-10-08T23:08:51.764Z,17.20
2017-10-08T23:11:19.615Z,17.20
2017-10-08T23:13:47.414Z,17.20
2017-10-08T23:16:15.140Z,17.20
2017-10-08T23:18:42.860Z,17.20
2017-10-08T23:21:10.650Z,17.20
2017-10-08T23:23:39.138Z,17.20
2017-10-08T23:26:06.856Z,17.10
2017-10-08T23:28:34.619Z,17.10
2017-10-08T23:31:02.408Z,17.10
2017-10-08T23:33:30.198Z,17.10
2017-10-08T23:35:57.939Z,17.10
2017-10-08T23:38:25.714Z,17.20
2017-10-08T23:40:53.489Z,17.10
2017-10-08T23:43:21.192Z,17.10
2017-10-08T23:45:49.099Z,17.20
2017-10-08T23:48:16.884Z,17.20
2017-10-08T23:50:44.660Z,17.20
2017-10-08T23:53:12.493Z,17.20
2017-10-08T23:55:40.282Z,17.20
2017-10-08T23:58:08.082Z,17.20
